createdAt,value
2019-01-24T00:01:28.551Z,61.27
2019-01-24T00:03:57.032Z,64.43
2019-01-24T00:06:27.967Z,63.00
2019-01-24T00:08:56.379Z,63.43
2019-01-24T00:11:25.080Z,62.23
2019-01-24T00:13:53.487Z,64.67
2019-01-24T00:16:21.914Z,59.27
2019-01-24T00:18:50.319Z,64.73
2019-01-24T00:21:18.725Z,59.40
2019-01-24T00:23:47.378Z,61.13
2019-01-24T00:26:15.981Z,58.57
2019-01-24T00:28:45.402Z,55.70
2019-01-24T00:31:13.807Z,61.17
2019-01-24T00:33:42.639Z,55.87
2019-01-24T00:36:12.583Z,61.97
2019-01-24T00:38:40.991Z,53.57
2019-01-24T00:41:09.433Z,56.57
2019-01-24T00:43:37.909Z,61.27
2019-01-24T00:46:06.316Z,58.53
2019-01-24T00:48:34.862Z,63.43
2019-01-24T00:51:04.771Z,58.23
2019-01-24T00:53:33.181Z,59.13
2019-01-24T00:56:01.727Z,59.27
2019-01-24T00:58:30.130Z,59.40
2019-01-24T01:00:58.617Z,54.63
2019-01-24T01:03:27.054Z,54.37
2019-01-24T01:05:55.528Z,63.30
2019-01-24T01:08:24.111Z,56.50
2019-01-24T01:10:52.719Z,55.53
2019-01-24T01:13:21.129Z,57.87
2019-01-24T01:15:49.533Z,54.63
2019-01-24T01:18:18.039Z,58.40
2019-01-24T01:20:46.441Z,65.23
2019-01-24T01:23:14.924Z,56.77
2019-01-24T01:25:43.475Z,57.53
2019-01-24T01:28:11.959Z,58.23
2019-01-24T01:30:40.559Z,53.20
2019-01-24T01:33:09.154Z,51.03
2019-01-24T01:35:37.555Z,49.73
2019-01-24T01:38:06.395Z,52.50
2019-01-24T01:40:34.831Z,53.07
2019-01-24T01:43:03.239Z,51.30
2019-01-24T01:45:31.639Z,56.10
2019-01-24T01:48:00.114Z,52.17
2019-01-24T01:50:28.597Z,57.10
2019-01-24T01:52:56.992Z,54.07
2019-01-24T01:55:25.521Z,64.03
2019-01-24T01:57:54.002Z,65.87
2019-01-24T02:00:24.939Z,56.23
2019-01-24T02:02:53.791Z,49.93
2019-01-24T02:05:25.105Z,61.13
2019-01-24T02:07:53.651Z,59.80
2019-01-24T02:10:24.011Z,60.60
2019-01-24T02:12:52.548Z,55.33
2019-01-24T02:15:21.298Z,58.57
2019-01-24T02:17:50.263Z,62.83
2019-01-24T02:20:23.682Z,55.37
2019-01-24T02:22:52.423Z,56.50
2019-01-24T02:25:21.186Z,59.73
2019-01-24T02:27:52.487Z,55.70
2019-01-24T02:30:23.664Z,61.50
2019-01-24T02:32:52.246Z,57.40
2019-01-24T02:35:20.720Z,63.33
2019-01-24T02:37:49.368Z,58.03
2019-01-24T02:40:17.903Z,61.10
2019-01-24T02:42:46.328Z,64.53
2019-01-24T02:45:17.806Z,54.77
2019-01-24T02:47:46.394Z,54.13
2019-01-24T02:50:19.621Z,57.97
2019-01-24T02:52:48.256Z,62.87
2019-01-24T02:55:17.029Z,56.57
2019-01-24T02:57:45.430Z,59.27
2019-01-24T03:00:21.538Z,57.27
2019-01-24T03:02:50.146Z,62.23
2019-01-24T03:05:20.191Z,60.70
2019-01-24T03:07:49.151Z,60.80
2019-01-24T03:10:17.630Z,53.80
2019-01-24T03:12:46.349Z,60.53
2019-01-24T03:15:17.299Z,59.70
2019-01-24T03:17:45.783Z,60.43
2019-01-24T03:20:17.021Z,57.73
2019-01-24T03:22:46.480Z,65.27
2019-01-24T03:25:17.389Z,67.17
2019-01-24T03:27:45.943Z,63.23
2019-01-24T03:30:20.169Z,56.63
2019-01-24T03:32:48.747Z,55.00
2019-01-24T03:35:19.833Z,62.83
2019-01-24T03:37:48.465Z,57.13
2019-01-24T03:40:17.346Z,54.30
2019-01-24T03:42:45.756Z,57.67
2019-01-24T03:45:16.795Z,58.83
2019-01-24T03:47:45.433Z,58.10
2019-01-24T03:50:19.204Z,56.90
2019-01-24T03:52:48.289Z,60.43
2019-01-24T03:55:18.731Z,59.93
2019-01-24T03:57:47.327Z,56.77
2019-01-24T04:00:18.518Z,62.80
2019-01-24T04:02:46.991Z,59.70
2019-01-24T04:05:16.443Z,60.17
2019-01-24T04:07:45.314Z,69.60
2019-01-24T04:10:18.425Z,62.93
2019-01-24T04:12:47.051Z,60.03
2019-01-24T04:15:24.035Z,59.63
2019-01-24T04:17:52.441Z,56.93
2019-01-24T04:20:20.987Z,61.47
2019-01-24T04:22:49.461Z,56.90
2019-01-24T04:25:17.864Z,62.83
2019-01-24T04:27:46.269Z,64.87
2019-01-24T04:30:20.378Z,66.20
2019-01-24T04:32:49.021Z,59.87
2019-01-24T04:35:19.916Z,61.97
2019-01-24T04:37:48.255Z,58.50
2019-01-24T04:40:18.379Z,62.50
2019-01-24T04:42:46.788Z,58.23
2019-01-24T04:45:17.141Z,54.40
2019-01-24T04:47:45.681Z,56.23
2019-01-24T04:50:18.516Z,61.13
2019-01-24T04:52:47.503Z,58.60
2019-01-24T04:55:19.665Z,58.53
2019-01-24T04:57:48.757Z,61.60
2019-01-24T05:00:25.886Z,62.67
2019-01-24T05:02:54.626Z,60.43
2019-01-24T05:08:17.210Z,51.87
2019-01-24T05:10:45.611Z,54.83
2019-01-24T05:13:14.031Z,53.07
2019-01-24T05:18:16.004Z,56.80
2019-01-24T05:20:44.411Z,54.03
2019-01-24T05:23:12.882Z,58.00
2019-01-24T05:25:41.248Z,53.77
2019-01-24T05:28:09.653Z,53.03
2019-01-24T05:30:38.092Z,56.67
2019-01-24T05:33:06.483Z,55.07
2019-01-24T05:35:35.149Z,54.40
2019-01-24T05:38:05.111Z,49.90
2019-01-24T05:40:33.512Z,53.53
2019-01-24T05:43:01.922Z,50.73
2019-01-24T05:48:03.892Z,54.77
2019-01-24T05:50:51.516Z,58.00
2019-01-24T05:53:19.927Z,55.23
2019-01-24T05:55:48.326Z,57.63
2019-01-24T05:58:16.842Z,57.63
2019-01-24T06:03:34.359Z,52.80
2019-01-24T06:06:02.766Z,49.97
2019-01-24T06:08:31.168Z,52.00
2019-01-24T06:10:59.668Z,58.20
2019-01-24T06:13:28.067Z,53.30
2019-01-24T06:15:56.506Z,57.00
2019-01-24T06:18:24.944Z,52.37
2019-01-24T06:20:53.415Z,53.97
2019-01-24T06:23:21.829Z,48.13
2019-01-24T06:25:50.349Z,53.63
2019-01-24T06:28:18.755Z,47.27
2019-01-24T06:30:47.224Z,51.13
2019-01-24T06:33:15.658Z,50.53
2019-01-24T06:35:48.755Z,54.23
2019-01-24T06:38:14.183Z,50.67
2019-01-24T06:40:42.612Z,52.97
2019-01-24T06:43:11.021Z,55.17
2019-01-24T06:45:39.433Z,52.53
2019-01-24T06:48:27.337Z,50.10
2019-01-24T06:50:55.739Z,51.03
2019-01-24T06:53:24.141Z,47.90
2019-01-24T06:58:26.944Z,50.87
2019-01-24T07:00:55.459Z,47.87
2019-01-24T07:03:23.869Z,48.17
2019-01-24T07:05:55.420Z,47.47
2019-01-24T07:08:22.431Z,47.13
2019-01-24T07:10:50.851Z,44.67
2019-01-24T07:13:19.270Z,47.33
2019-01-24T07:18:21.235Z,46.53
2019-01-24T07:20:49.717Z,48.83
2019-01-24T07:23:18.299Z,40.37
2019-01-24T07:25:46.705Z,43.93
2019-01-24T07:28:15.114Z,41.20
2019-01-24T07:33:17.557Z,43.93
2019-01-24T07:38:19.883Z,42.53
2019-01-24T07:40:48.283Z,39.53
2019-01-24T07:45:51.336Z,43.13
2019-01-24T07:48:19.762Z,40.47
2019-01-24T07:51:07.291Z,41.40
2019-01-24T07:53:35.735Z,44.40
2019-01-24T07:59:12.318Z,44.10
2019-01-24T08:01:40.730Z,42.40
2019-01-24T08:04:09.175Z,41.17
2019-01-24T08:06:37.661Z,43.40
2019-01-24T08:09:45.973Z,39.50
2019-01-24T08:14:48.391Z,40.83
2019-01-24T08:17:16.829Z,42.20
2019-01-24T08:19:45.240Z,41.53
2019-01-24T08:22:13.650Z,44.00
2019-01-24T08:24:42.088Z,42.20
2019-01-24T08:27:10.496Z,42.93
2019-01-24T08:29:38.902Z,40.17
2019-01-24T08:32:07.426Z,37.00
2019-01-24T08:34:35.838Z,39.07
2019-01-24T08:37:04.323Z,40.90
2019-01-24T08:39:32.742Z,43.00
2019-01-24T08:42:01.146Z,44.40
2019-01-24T08:44:29.554Z,39.93
2019-01-24T08:49:31.806Z,41.10
2019-01-24T08:52:00.266Z,41.47
2019-01-24T08:54:28.674Z,41.57
2019-01-24T08:56:57.070Z,42.63
2019-01-24T08:59:29.500Z,40.83
2019-01-24T09:01:55.614Z,40.40
2019-01-24T09:04:24.025Z,40.33
2019-01-24T09:06:52.449Z,43.27
2019-01-24T09:09:20.855Z,49.87
2019-01-24T09:11:49.263Z,40.43
2019-01-24T09:14:37.061Z,40.70
2019-01-24T09:17:05.478Z,39.40
2019-01-24T09:19:33.879Z,41.23
2019-01-24T09:24:36.771Z,40.03
2019-01-24T09:29:39.689Z,41.20
2019-01-24T09:32:08.266Z,41.73
2019-01-24T09:34:36.666Z,40.20
2019-01-24T09:37:05.205Z,42.03
2019-01-24T09:39:33.635Z,43.07
2019-01-24T09:42:02.038Z,42.17
2019-01-24T09:44:30.447Z,45.77
2019-01-24T09:49:32.553Z,43.33
2019-01-24T09:54:34.583Z,43.50
2019-01-24T09:57:03.098Z,37.87
2019-01-24T09:59:31.498Z,47.73
2019-01-24T10:01:59.894Z,43.93
2019-01-24T10:04:28.399Z,42.17
2019-01-24T10:06:56.804Z,58.57
2019-01-24T10:09:25.206Z,46.93
2019-01-24T10:11:53.726Z,44.57
2019-01-24T10:14:22.122Z,41.30
2019-01-24T10:16:50.529Z,44.10
2019-01-24T10:19:19.045Z,41.83
2019-01-24T10:21:47.443Z,42.40
2019-01-24T10:24:15.847Z,38.90
2019-01-24T10:29:18.342Z,43.43
2019-01-24T10:31:46.858Z,43.13
2019-01-24T10:34:15.335Z,43.03
2019-01-24T10:36:43.814Z,44.27
2019-01-24T10:41:46.839Z,35.90
2019-01-24T10:44:15.306Z,40.43
2019-01-24T10:46:43.709Z,45.93
2019-01-24T10:49:12.105Z,42.00
2019-01-24T10:54:14.266Z,43.77
2019-01-24T10:59:16.707Z,42.93
2019-01-24T11:01:45.150Z,46.10
2019-01-24T11:04:13.546Z,41.63
2019-01-24T11:06:41.958Z,40.87
2019-01-24T11:09:50.301Z,40.33
2019-01-24T11:12:18.695Z,41.10
2019-01-24T11:14:47.118Z,44.37
2019-01-24T11:19:49.045Z,45.47
2019-01-24T11:22:17.440Z,43.03
2019-01-24T11:24:45.872Z,45.97
2019-01-24T11:27:14.270Z,49.87
2019-01-24T11:29:42.668Z,53.27
2019-01-24T11:35:43.953Z,42.23
2019-01-24T11:48:28.535Z,40.97
2019-01-24T11:53:30.545Z,38.17
2019-01-24T11:55:58.964Z,36.43
2019-01-24T11:58:27.359Z,37.23
2019-01-24T12:03:44.939Z,35.67
2019-01-24T12:06:13.332Z,35.37
2019-01-24T12:08:41.735Z,34.83
2019-01-24T12:14:03.280Z,36.07
2019-01-24T12:16:31.712Z,39.53
2019-01-24T12:19:00.101Z,32.70
2019-01-24T12:21:28.526Z,32.90
2019-01-24T12:23:56.962Z,38.57
2019-01-24T12:26:25.381Z,36.67
2019-01-24T12:31:46.948Z,33.77
2019-01-24T12:34:15.402Z,33.00
2019-01-24T12:36:43.804Z,35.07
2019-01-24T12:39:12.206Z,36.07
2019-01-24T12:41:40.628Z,35.07
2019-01-24T12:44:09.023Z,36.37
2019-01-24T12:46:37.424Z,33.60
2019-01-24T12:51:40.370Z,33.17
2019-01-24T12:54:08.806Z,35.03
2019-01-24T12:56:37.202Z,38.53
2019-01-24T12:59:05.604Z,37.80
2019-01-24T13:01:34.026Z,37.87
2019-01-24T13:04:02.427Z,33.20
2019-01-24T13:06:30.834Z,34.43
2019-01-24T13:08:59.267Z,35.17
2019-01-24T13:11:27.739Z,35.17
2019-01-24T13:13:56.144Z,31.47
2019-01-24T13:18:58.933Z,34.17
2019-01-24T13:21:27.370Z,42.70
2019-01-24T13:23:55.771Z,32.70
2019-01-24T13:26:24.225Z,36.20
2019-01-24T13:29:05.386Z,36.00
2019-01-24T13:31:33.788Z,30.90
2019-01-24T13:34:02.184Z,31.97
2019-01-24T13:39:44.985Z,35.20
2019-01-24T13:44:47.787Z,32.37
2019-01-24T13:47:16.305Z,31.57
2019-01-24T13:49:44.705Z,30.03
2019-01-24T13:52:13.107Z,29.37
2019-01-24T13:57:16.124Z,31.70
2019-01-24T14:02:18.316Z,28.63
2019-01-24T14:04:46.751Z,46.67
2019-01-24T14:07:46.306Z,33.30
2019-01-24T14:10:44.418Z,33.37
2019-01-24T14:13:12.816Z,30.07
2019-01-24T14:15:41.219Z,28.77
2019-01-24T14:18:40.807Z,30.70
2019-01-24T14:20:59.076Z,29.17
2019-01-24T14:23:27.478Z,32.17
2019-01-24T14:25:55.913Z,29.70
2019-01-24T14:28:43.644Z,27.90
2019-01-24T14:33:53.040Z,27.93
2019-01-24T14:36:40.662Z,30.17
2019-01-24T14:39:48.989Z,28.80
2019-01-24T14:42:17.424Z,26.83
2019-01-24T14:44:45.816Z,31.87
2019-01-24T14:47:14.215Z,27.43
2019-01-24T14:49:42.659Z,32.43
2019-01-24T14:52:30.399Z,29.23
2019-01-24T14:54:58.855Z,27.77
2019-01-24T14:57:27.240Z,27.93
2019-01-24T14:59:55.646Z,29.43
2019-01-24T15:04:58.053Z,31.13
2019-01-24T15:07:26.464Z,33.07
2019-01-24T15:10:14.189Z,33.27
2019-01-24T15:12:42.587Z,33.07
2019-01-24T15:15:51.262Z,35.03
2019-01-24T15:18:19.674Z,32.57
2019-01-24T15:23:41.842Z,31.53
2019-01-24T15:26:29.598Z,36.47
2019-01-24T15:28:58.006Z,37.83
2019-01-24T15:31:26.422Z,36.10
2019-01-24T15:33:54.867Z,37.07
2019-01-24T15:36:23.263Z,35.03
2019-01-24T15:38:51.666Z,34.07
2019-01-24T15:43:54.393Z,43.80
2019-01-24T15:46:22.816Z,47.10
2019-01-24T15:48:51.220Z,38.53
2019-01-24T15:51:19.618Z,40.10
2019-01-24T15:54:07.367Z,38.90
2019-01-24T15:56:35.777Z,40.93
2019-01-24T15:59:04.233Z,32.33
2019-01-24T16:01:32.656Z,35.10
2019-01-24T16:04:01.058Z,32.87
2019-01-24T16:06:48.844Z,38.30
2019-01-24T16:09:17.240Z,48.30
2019-01-24T16:11:45.642Z,73.30
2019-01-24T16:16:48.595Z,70.57
2019-01-24T16:21:51.305Z,41.97
2019-01-24T16:24:19.756Z,38.17
2019-01-24T16:26:48.228Z,40.47
2019-01-24T16:29:16.627Z,36.17
2019-01-24T16:31:45.048Z,36.57
2019-01-24T16:34:13.465Z,45.63
2019-01-24T16:36:41.873Z,38.47
2019-01-24T16:39:10.332Z,37.67
2019-01-24T16:41:58.058Z,40.47
2019-01-24T16:44:26.523Z,35.83
2019-01-24T16:46:54.924Z,40.80
2019-01-24T16:49:23.400Z,54.77
2019-01-24T16:51:51.828Z,55.63
2019-01-24T16:54:20.226Z,47.63
2019-01-24T16:56:48.628Z,43.40
2019-01-24T16:59:17.064Z,44.67
2019-01-24T17:01:45.462Z,40.23
2019-01-24T17:04:13.869Z,42.70
2019-01-24T17:06:42.284Z,45.93
2019-01-24T17:09:50.592Z,49.03
2019-01-24T17:12:19.032Z,48.50
2019-01-24T17:14:47.444Z,51.97
2019-01-24T17:17:15.844Z,45.90
2019-01-24T17:22:18.210Z,42.77
2019-01-24T17:24:46.618Z,46.23
2019-01-24T17:27:15.060Z,52.90
2019-01-24T17:29:43.476Z,224.80
2019-01-24T17:32:11.880Z,51.70
2019-01-24T17:34:40.315Z,53.10
2019-01-24T17:37:08.796Z,100.63
2019-01-24T17:39:37.206Z,136.33
2019-01-24T17:42:05.639Z,120.73
2019-01-24T17:44:34.048Z,84.33
2019-01-24T17:47:21.665Z,62.53
2019-01-24T17:49:51.539Z,82.50
2019-01-24T17:52:20.186Z,58.57
2019-01-24T17:54:48.624Z,57.37
2019-01-24T17:57:17.025Z,44.83
2019-01-24T17:59:45.427Z,50.00
2019-01-24T18:04:47.557Z,52.60
2019-01-24T18:09:49.915Z,54.50
2019-01-24T18:12:18.386Z,50.40
2019-01-24T18:14:46.782Z,55.40
2019-01-24T18:17:15.198Z,56.07
2019-01-24T18:19:43.625Z,50.70
2019-01-24T18:22:12.039Z,48.67
2019-01-24T18:24:40.444Z,44.50
2019-01-24T18:27:08.864Z,44.80
2019-01-24T18:29:37.274Z,49.43
2019-01-24T18:32:45.727Z,46.27
2019-01-24T18:35:54.047Z,48.20
2019-01-24T18:40:56.819Z,50.57
2019-01-24T18:43:25.317Z,49.27
2019-01-24T18:46:33.661Z,48.60
2019-01-24T18:49:02.127Z,45.27
2019-01-24T18:51:30.542Z,47.80
2019-01-24T18:53:58.948Z,41.57
2019-01-24T18:56:48.218Z,45.13
2019-01-24T18:59:16.855Z,53.30
2019-01-24T19:01:45.265Z,47.60
2019-01-24T19:04:13.691Z,65.53
2019-01-24T19:06:42.107Z,46.03
2019-01-24T19:09:50.464Z,51.90
2019-01-24T19:12:18.872Z,55.30
2019-01-24T19:14:47.287Z,54.07
2019-01-24T19:17:15.723Z,53.43
2019-01-24T19:19:44.134Z,70.27
2019-01-24T19:22:12.534Z,59.03
2019-01-24T19:24:41.006Z,53.50
2019-01-24T19:27:09.357Z,56.77
2019-01-24T19:29:37.769Z,45.30
2019-01-24T19:32:06.211Z,39.70
2019-01-24T19:34:34.620Z,44.57
2019-01-24T19:37:03.022Z,42.77
2019-01-24T19:39:31.494Z,48.97
2019-01-24T19:41:59.898Z,44.67
2019-01-24T19:44:28.303Z,44.07
2019-01-24T19:49:30.661Z,49.40
2019-01-24T19:54:32.629Z,50.13
2019-01-24T19:57:20.699Z,50.90
2019-01-24T19:59:49.109Z,48.03
2019-01-24T20:02:17.538Z,53.70
2019-01-24T20:04:46.055Z,51.27
2019-01-24T20:07:14.465Z,53.33
2019-01-24T20:09:42.882Z,49.10
2019-01-24T20:12:11.356Z,49.07
2019-01-24T20:14:39.784Z,50.50
2019-01-24T20:17:27.538Z,43.57
2019-01-24T20:19:56.214Z,51.57
2019-01-24T20:22:24.631Z,51.40
2019-01-24T20:24:53.125Z,49.63
2019-01-24T20:27:21.541Z,52.80
2019-01-24T20:30:09.302Z,48.17
2019-01-24T20:32:37.711Z,50.00
2019-01-24T20:35:46.063Z,52.77
2019-01-24T20:38:14.472Z,58.40
2019-01-24T20:41:02.249Z,82.23
2019-01-24T20:43:35.372Z,65.50
2019-01-24T20:46:00.786Z,58.43
2019-01-24T20:48:29.252Z,60.87
2019-01-24T20:50:57.655Z,57.57
2019-01-24T20:53:45.321Z,55.73
2019-01-24T20:56:13.747Z,60.37
2019-01-24T20:58:42.159Z,61.23
2019-01-24T21:01:29.987Z,60.57
2019-01-24T21:03:58.405Z,56.93
2019-01-24T21:06:26.816Z,59.00
2019-01-24T21:08:55.251Z,64.53
2019-01-24T21:11:23.673Z,69.53
2019-01-24T21:13:52.087Z,71.83
2019-01-24T21:18:54.323Z,69.73
2019-01-24T21:21:22.775Z,63.53
2019-01-24T21:23:51.180Z,63.93
2019-01-24T21:26:19.604Z,59.73
2019-01-24T21:28:48.043Z,78.13
2019-01-24T21:31:16.461Z,80.60
2019-01-24T21:33:44.877Z,73.47
2019-01-24T21:38:47.315Z,70.83
2019-01-24T21:43:50.161Z,66.07
2019-01-24T21:46:18.595Z,60.83
2019-01-24T21:49:06.312Z,62.20
2019-01-24T21:51:34.774Z,62.83
2019-01-24T21:54:03.183Z,63.17
2019-01-24T21:56:31.595Z,68.63
2019-01-24T21:59:00.073Z,65.13
2019-01-24T22:01:28.479Z,60.83
2019-01-24T22:03:56.897Z,60.70
2019-01-24T22:06:25.377Z,66.50
2019-01-24T22:09:13.031Z,63.83
2019-01-24T22:14:15.914Z,63.70
2019-01-24T22:16:44.355Z,58.90
2019-01-24T22:19:12.770Z,56.57
2019-01-24T22:21:41.172Z,54.40
2019-01-24T22:26:43.593Z,51.77
2019-01-24T22:31:46.256Z,51.70
2019-01-24T22:36:48.382Z,49.77
2019-01-24T22:39:16.896Z,47.30
2019-01-24T22:41:45.299Z,51.10
2019-01-24T22:44:13.705Z,57.03
2019-01-24T22:46:54.952Z,52.07
2019-01-24T22:49:23.359Z,51.40
2019-01-24T22:51:51.763Z,50.60
2019-01-24T22:56:54.145Z,54.27
2019-01-24T22:59:22.551Z,59.30
2019-01-24T23:02:30.903Z,54.90
2019-01-24T23:04:59.310Z,57.53
2019-01-24T23:07:27.715Z,52.93
2019-01-24T23:09:56.368Z,52.33
2019-01-24T23:12:24.723Z,55.93
2019-01-24T23:14:53.139Z,53.60
2019-01-24T23:17:21.573Z,52.10
2019-01-24T23:19:49.981Z,55.30
2019-01-24T23:22:18.395Z,56.37
2019-01-24T23:24:46.915Z,53.10
2019-01-24T23:27:15.317Z,55.37
2019-01-24T23:29:43.727Z,54.07
2019-01-24T23:32:12.279Z,52.53
2019-01-24T23:34:40.859Z,57.17
2019-01-24T23:37:09.259Z,55.43
2019-01-24T23:39:37.695Z,55.67
2019-01-24T23:42:06.099Z,57.73
2019-01-24T23:44:34.499Z,57.30
2019-01-24T23:47:02.935Z,58.50
2019-01-24T23:49:31.342Z,60.90
2019-01-24T23:51:59.751Z,56.37
2019-01-24T23:54:28.387Z,61.23
2019-01-24T23:56:56.791Z,55.63
2019-01-24T23:59:26.847Z,61.17
